Time;durP1;ratioP1;P1;durP2;ratioP2;P2;SDS_P1;SDS_P2;PMS_P1;PMS_P2;Temp;Humidity;BMP_temperature;BMP_pressure;BME280_temperature;BME280_humidity;BME280_pressure;Samples;Min_cycle;Max_cycle;Signal;HPM_P1;HPM_P2
2022/04/08 00:00:41;;;;;;;4.10;1.48;;;;;;;25.76;30.82;100164.13;4936509;29;20063;-45
2022/04/08 00:03:10;;;;;;;5.93;1.60;;;;;;;25.77;31.14;100170.25;4937009;29;20031;-51
2022/04/08 00:05:38;;;;;;;4.80;1.67;;;;;;;25.78;30.94;100159.72;4936446;29;20059;-47
2022/04/08 00:08:07;;;;;;;3.95;1.50;;;;;;;25.73;30.88;100158.88;4936324;29;20035;-44
2022/04/08 00:10:36;;;;;;;3.05;1.40;;;;;;;25.72;30.84;100151.03;4936313;29;20474;-44
2022/04/08 00:13:04;;;;;;;3.45;1.23;;;;;;;25.71;31.08;100151.91;4936629;29;20020;-46
2022/04/08 00:15:36;;;;;;;4.20;1.52;;;;;;;25.74;30.99;100144.00;4936321;29;20394;-48
2022/04/08 00:18:04;;;;;;;3.15;1.40;;;;;;;25.75;30.88;100133.47;4936418;29;20161;-44
2022/04/08 00:20:33;;;;;;;5.45;1.40;;;;;;;25.77;30.84;100130.84;4936251;29;20031;-45
2022/04/08 00:23:02;;;;;;;6.20;1.80;;;;;;;25.79;30.80;100127.31;4936192;29;20038;-47
2022/04/08 00:25:31;;;;;;;3.70;1.27;;;;;;;25.74;30.77;100123.00;4935989;29;20057;-48
2022/04/08 00:28:00;;;;;;;3.30;1.20;;;;;;;25.78;30.68;100116.84;4936271;29;20036;-48
2022/04/08 00:30:29;;;;;;;4.95;1.48;;;;;;;25.78;30.73;100122.09;4935758;29;20421;-45
2022/04/08 00:32:58;;;;;;;3.85;1.58;;;;;;;25.77;30.66;100107.22;4936816;29;20470;-45
2022/04/08 00:35:27;;;;;;;4.25;1.35;;;;;;;25.77;30.99;100104.59;4936164;29;20035;-44
2022/04/08 00:37:56;;;;;;;4.05;1.58;;;;;;;25.76;30.68;100102.84;4936314;29;20039;-45
2022/04/08 00:40:25;;;;;;;4.78;1.55;;;;;;;25.76;30.50;100097.59;4935950;29;20079;-44
2022/04/08 00:42:54;;;;;;;4.35;1.48;;;;;;;25.77;30.58;100080.94;4936482;29;20062;-44
2022/04/08 00:45:22;;;;;;;3.58;1.30;;;;;;;25.69;30.78;100070.50;4936216;29;20036;-44
2022/04/08 00:47:50;;;;;;;3.05;1.13;;;;;;;25.77;30.98;100067.81;4936018;29;20374;-50
2022/04/08 00:50:22;;;;;;;5.47;1.65;;;;;;;25.77;30.70;100054.69;4936134;29;20378;-45
2022/04/08 00:52:50;;;;;;;2.78;0.98;;;;;;;25.72;30.67;100046.84;4936134;29;20059;-45
2022/04/08 00:55:19;;;;;;;3.55;1.30;;;;;;;25.71;30.70;100044.22;4918761;29;20036;-45
2022/04/08 00:57:47;;;;;;;3.95;1.38;;;;;;;25.72;30.70;100032.81;4935840;29;20027;-45
2022/04/08 01:00:16;;;;;;;4.05;1.25;;;;;;;25.74;30.75;100025.81;4918956;29;20038;-45
2022/04/08 01:02:45;;;;;;;3.50;1.42;;;;;;;25.68;30.71;100024.09;4935877;29;20479;-45
2022/04/08 01:05:13;;;;;;;3.58;1.23;;;;;;;25.71;30.63;100004.81;4936053;29;20105;-44
2022/04/08 01:07:42;;;;;;;2.85;1.30;;;;;;;25.68;31.04;99973.31;4935743;29;20390;-45
2022/04/08 01:10:10;;;;;;;4.80;1.63;;;;;;;25.66;30.99;99965.47;4935749;29;20031;-45
2022/04/08 01:12:39;;;;;;;4.15;1.50;;;;;;;25.70;30.70;99974.16;4935852;29;20036;-45
2022/04/08 01:15:09;;;;;;;5.43;1.10;;;;;;;25.68;30.89;99949.66;4935945;29;20028;-45
2022/04/08 01:17:38;;;;;;;3.53;1.20;;;;;;;25.63;31.02;99940.09;4935843;29;20031;-47
2022/04/08 01:20:07;;;;;;;3.92;1.20;;;;;;;25.68;31.02;99918.16;4935640;29;20114;-45
2022/04/08 01:22:36;;;;;;;2.30;0.90;;;;;;;25.65;30.80;99912.97;4937509;29;20038;-46
2022/04/08 01:25:07;;;;;;;4.35;1.58;;;;;;;25.66;30.65;99912.03;4939410;29;20063;-45
2022/04/08 01:27:35;;;;;;;4.15;1.10;;;;;;;25.66;30.89;99904.16;4922549;29;20059;-45
2022/04/08 01:30:06;;;;;;;2.83;1.10;;;;;;;25.66;30.64;99897.19;4938862;29;20051;-45
2022/04/08 01:32:34;;;;;;;5.20;1.13;;;;;;;25.67;30.60;99882.28;4939142;29;20130;-45
2022/04/08 01:35:03;;;;;;;3.67;1.33;;;;;;;25.64;30.96;99856.91;4939399;29;20083;-46
2022/04/08 01:37:32;;;;;;;3.65;1.08;;;;;;;25.67;30.74;99859.50;4922115;29;20087;-46
2022/04/08 01:40:01;;;;;;;4.25;1.40;;;;;;;25.60;31.08;99845.59;4939260;29;20032;-46
2022/04/08 01:42:29;;;;;;;3.17;1.38;;;;;;;25.58;30.81;99834.22;4939405;29;20032;-44
2022/04/08 01:44:58;;;;;;;3.20;1.08;;;;;;;25.58;31.20;99820.22;4938987;29;20038;-45
2022/04/08 01:47:26;;;;;;;3.70;1.20;;;;;;;25.60;30.81;99811.44;4939087;29;20040;-44
2022/04/08 01:49:55;;;;;;;2.92;0.93;;;;;;;25.58;30.76;99797.47;4939181;29;20036;-48
2022/04/08 01:52:24;;;;;;;4.80;1.65;;;;;;;25.57;31.07;99794.84;4939268;29;20028;-43
2022/04/08 01:54:52;;;;;;;3.25;0.90;;;;;;;25.54;30.82;99781.78;4939576;29;20039;-44
2022/04/08 01:57:23;;;;;;;3.78;1.20;;;;;;;25.52;30.58;99766.00;4938829;29;20028;-44
2022/04/08 01:59:53;;;;;;;6.07;1.20;;;;;;;25.49;30.94;99750.28;4922060;29;20043;-45
2022/04/08 02:02:22;;;;;;;4.25;1.20;;;;;;;25.51;30.80;99745.91;4938933;29;20075;-43
2022/04/08 02:04:50;;;;;;;3.88;1.33;;;;;;;25.50;31.11;99732.81;4938598;29;20028;-46
2022/04/08 02:07:19;;;;;;;3.47;1.02;;;;;;;25.50;30.92;99723.16;4938308;29;20031;-45
2022/04/08 02:09:48;;;;;;;3.60;1.48;;;;;;;25.49;31.13;99703.03;4939049;29;20062;-44
2022/04/08 02:12:16;;;;;;;3.10;0.98;;;;;;;25.46;30.97;99703.09;4938596;29;20086;-44
2022/04/08 02:14:45;;;;;;;3.75;1.23;;;;;;;25.42;31.08;99686.50;4937585;29;20075;-44
2022/04/08 02:17:14;;;;;;;3.58;1.20;;;;;;;25.49;30.61;99684.66;4937461;29;20035;-46
2022/04/08 02:19:42;;;;;;;2.40;0.98;;;;;;;25.42;31.23;99673.38;4920741;29;20118;-44
2022/04/08 02:22:12;;;;;;;3.63;1.27;;;;;;;25.43;30.80;99676.88;4938686;29;20039;-47
2022/04/08 02:24:40;;;;;;;4.57;1.10;;;;;;;25.39;30.82;99670.78;4921859;29;20027;-43
2022/04/08 02:27:09;;;;;;;3.80;0.90;;;;;;;25.45;30.83;99668.09;4938205;29;20036;-45
2022/04/08 02:29:38;;;;;;;3.28;0.75;;;;;;;25.48;31.06;99651.44;4921473;29;20466;-45
2022/04/08 02:32:09;;;;;;;1.70;0.77;;;;;;;25.44;30.73;99631.38;4938105;29;20509;-48
2022/04/08 02:34:38;;;;;;;2.83;0.80;;;;;;;25.47;30.97;99610.31;4937006;29;20036;-45
2022/04/08 02:37:07;;;;;;;2.42;0.85;;;;;;;25.44;30.77;99590.22;4938185;29;20031;-46
2022/04/08 02:39:36;;;;;;;2.08;0.77;;;;;;;25.47;31.06;99578.81;4938337;29;20028;-45
2022/04/08 02:42:05;;;;;;;2.33;0.93;;;;;;;25.47;30.87;99566.53;4938470;29;20106;-45
2022/04/08 02:44:33;;;;;;;3.63;0.88;;;;;;;25.46;30.95;99563.94;4938918;29;20035;-46
2022/04/08 02:47:01;;;;;;;2.15;0.70;;;;;;;25.47;30.89;99547.31;4938023;29;20059;-45
2022/04/08 02:49:29;;;;;;;3.15;1.00;;;;;;;25.38;31.11;99540.41;4937837;29;20063;-45
2022/04/08 02:51:58;;;;;;;1.83;0.82;;;;;;;25.31;31.15;99551.88;4920741;29;20032;-45
2022/04/08 02:54:26;;;;;;;4.30;1.50;;;;;;;25.26;31.43;99535.31;4937959;29;20449;-45
2022/04/08 02:56:54;;;;;;;4.07;1.50;;;;;;;25.32;31.16;99537.88;4937855;29;20393;-45
2022/04/08 02:59:22;;;;;;;3.47;1.20;;;;;;;25.24;31.59;99532.72;4937667;29;20042;-45
2022/04/08 03:01:51;;;;;;;4.82;1.73;;;;;;;25.29;31.46;99530.91;4937773;29;20028;-46
2022/04/08 03:04:19;;;;;;;6.43;1.88;;;;;;;25.35;31.50;99527.31;4937616;29;20058;-45
2022/04/08 03:06:48;;;;;;;3.17;1.40;;;;;;;25.34;31.11;99526.44;4937273;29;20055;-45
2022/04/08 03:09:16;;;;;;;5.70;1.80;;;;;;;25.33;31.40;99521.22;4937909;29;20024;-47
2022/04/08 03:11:45;;;;;;;6.05;1.98;;;;;;;25.32;31.53;99509.00;4937399;29;20106;-45
2022/04/08 03:14:14;;;;;;;5.85;2.00;;;;;;;25.30;31.38;99516.03;4937663;29;20466;-47
2022/04/08 03:16:43;;;;;;;5.45;2.05;;;;;;;25.29;31.36;99535.28;4937357;29;20043;-46
2022/04/08 03:19:11;;;;;;;5.85;1.92;;;;;;;25.27;31.78;99519.56;4937529;29;20031;-47
2022/04/08 03:21:40;;;;;;;6.60;1.98;;;;;;;25.20;31.44;99510.03;4937428;29;20034;-44
2022/04/08 03:24:10;;;;;;;7.95;2.60;;;;;;;25.18;31.84;99504.84;4936890;29;20053;-43
2022/04/08 03:26:39;;;;;;;6.32;2.40;;;;;;;25.22;31.46;99512.66;4937246;29;20047;-44
2022/04/08 03:29:07;;;;;;;5.80;2.40;;;;;;;25.26;31.73;99506.44;4936912;29;20469;-44
2022/04/08 03:31:36;;;;;;;6.68;2.22;;;;;;;25.25;31.59;99508.22;4937319;29;20110;-49
2022/04/08 03:34:04;;;;;;;8.13;2.67;;;;;;;25.20;31.81;99486.41;4937261;29;20028;-44
2022/04/08 03:36:33;;;;;;;7.07;2.63;;;;;;;25.24;31.75;99498.63;4920719;29;20082;-46
2022/04/08 03:39:01;;;;;;;10.20;3.67;;;;;;;25.22;31.77;99491.66;4936984;29;20060;-44
2022/04/08 03:41:30;;;;;;;10.52;2.88;;;;;;;25.30;31.78;99479.28;4936895;29;20031;-44
2022/04/08 03:43:58;;;;;;;10.05;3.30;;;;;;;25.22;31.66;99476.78;4937032;29;20028;-44
2022/04/08 03:46:27;;;;;;;9.55;2.80;;;;;;;25.22;31.65;99468.03;4936353;29;20153;-44
2022/04/08 03:48:55;;;;;;;8.85;3.63;;;;;;;25.16;31.73;99476.84;4936863;29;20028;-45
2022/04/08 03:51:24;;;;;;;10.77;3.38;;;;;;;25.18;31.79;99467.22;4936800;29;20038;-44
2022/04/08 03:53:53;;;;;;;11.25;3.67;;;;;;;25.16;31.92;99461.13;4920047;29;20043;-43
2022/04/08 03:56:21;;;;;;;9.18;3.38;;;;;;;25.12;32.02;99459.44;4936691;29;20063;-43
2022/04/08 03:58:50;;;;;;;8.60;2.90;;;;;;;25.13;32.01;99455.94;4936760;29;20031;-43
2022/04/08 04:01:18;;;;;;;13.25;4.05;;;;;;;25.16;31.93;99441.00;4936633;29;20027;-43
2022/04/08 04:03:47;;;;;;;12.02;4.00;;;;;;;25.11;31.84;99432.31;4937026;29;20472;-43
2022/04/08 04:06:16;;;;;;;10.65;3.70;;;;;;;25.15;31.72;99427.91;4936345;29;20028;-44
2022/04/08 04:08:44;;;;;;;12.20;4.03;;;;;;;25.14;31.88;99437.53;4936394;29;20032;-43
2022/04/08 04:11:16;;;;;;;10.63;3.67;;;;;;;25.13;32.01;99430.56;4919979;29;20027;-43
2022/04/08 04:13:45;;;;;;;11.23;4.03;;;;;;;25.14;32.10;99407.81;4936848;29;20091;-44
2022/04/08 04:16:13;;;;;;;13.45;3.75;;;;;;;25.10;32.23;99395.63;4936159;29;20490;-43
2022/04/08 04:18:41;;;;;;;12.35;3.55;;;;;;;25.07;32.28;99395.69;4936383;29;20543;-44
2022/04/08 04:21:12;;;;;;;11.80;4.20;;;;;;;25.11;32.23;99386.88;4919326;29;20023;-43
2022/04/08 04:23:40;;;;;;;12.82;3.88;;;;;;;25.13;31.96;99387.72;4936581;29;20028;-44
2022/04/08 04:26:09;;;;;;;13.93;4.25;;;;;;;25.09;31.94;99386.88;4935942;29;20039;-43
2022/04/08 04:28:37;;;;;;;9.02;3.65;;;;;;;25.09;32.01;99376.38;4935817;29;20106;-44
2022/04/08 04:31:06;;;;;;;11.68;3.88;;;;;;;25.08;32.37;99379.03;4936114;29;20044;-49
2022/04/08 04:33:35;;;;;;;11.02;3.85;;;;;;;25.10;32.32;99370.25;4936118;29;20027;-44
2022/04/08 04:36:03;;;;;;;14.50;4.03;;;;;;;25.11;32.20;99364.09;4936181;29;20043;-43
2022/04/08 04:38:32;;;;;;;12.65;4.53;;;;;;;25.13;32.11;99359.69;4935853;29;20078;-44
2022/04/08 04:41:00;;;;;;;9.57;3.38;;;;;;;25.09;32.08;99360.63;4936163;29;20028;-45
2022/04/08 04:43:28;;;;;;;10.00;3.60;;;;;;;25.09;32.05;99349.28;4935449;29;20110;-45
2022/04/08 04:45:57;;;;;;;11.45;4.00;;;;;;;25.17;32.21;99339.50;4935813;29;20386;-49
2022/04/08 04:48:25;;;;;;;14.88;3.90;;;;;;;25.14;31.88;99331.72;4935176;29;20027;-43
2022/04/08 04:50:54;;;;;;;13.48;4.30;;;;;;;25.16;32.15;99324.66;4935716;29;20381;-43
2022/04/08 04:53:23;;;;;;;8.18;3.30;;;;;;;25.10;32.30;99335.28;4936021;29;20069;-49
2022/04/08 04:55:52;;;;;;;10.23;3.70;;;;;;;25.09;31.97;99338.81;4935884;29;20043;-46
2022/04/08 04:58:21;;;;;;;12.52;4.43;;;;;;;25.16;32.18;99327.28;4922407;29;20032;-47
2022/04/08 05:00:50;;;;;;;9.13;3.22;;;;;;;25.13;31.96;99327.38;4939967;29;20035;-44
2022/04/08 05:03:18;;;;;;;10.30;3.35;;;;;;;25.06;32.27;99317.84;4939736;29;20477;-46
2022/04/08 05:05:47;;;;;;;11.15;3.72;;;;;;;25.09;32.33;99318.66;4939233;29;20167;-44
2022/04/08 05:08:16;;;;;;;11.45;4.03;;;;;;;25.09;32.10;99328.31;4922695;29;20118;-43
2022/04/08 05:10:45;;;;;;;12.18;5.00;;;;;;;25.07;32.29;99324.84;4940271;29;20024;-45
2022/04/08 05:13:13;;;;;;;8.70;3.72;;;;;;;25.08;32.44;99327.41;4939630;29;20500;-45
2022/04/08 05:15:42;;;;;;;13.77;4.38;;;;;;;25.00;32.54;99318.84;4939851;29;20042;-46
2022/04/08 05:18:11;;;;;;;10.52;3.60;;;;;;;25.02;32.50;99335.41;4939688;29;20035;-45
2022/04/08 05:20:39;;;;;;;11.48;3.58;;;;;;;25.01;32.47;99318.78;4939413;29;20397;-51
2022/04/08 05:23:08;;;;;;;10.57;3.50;;;;;;;24.98;32.45;99323.25;4939974;29;20059;-46
2022/04/08 05:25:37;;;;;;;10.30;3.33;;;;;;;24.96;32.25;99309.28;4939500;29;20024;-45
2022/04/08 05:28:06;;;;;;;9.77;3.38;;;;;;;24.90;32.57;99307.63;4922849;29;20034;-45
2022/04/08 05:30:34;;;;;;;10.15;3.50;;;;;;;24.93;32.34;99294.47;4922132;29;20048;-45
2022/04/08 05:33:03;;;;;;;10.40;3.53;;;;;;;24.96;32.37;99304.91;4939268;29;20458;-45
2022/04/08 05:35:31;;;;;;;8.63;3.22;;;;;;;24.91;32.62;99280.50;4939090;29;20092;-45
2022/04/08 05:38:00;;;;;;;10.65;3.50;;;;;;;24.96;32.12;99259.44;4939185;29;20031;-45
2022/04/08 05:40:28;;;;;;;8.93;3.15;;;;;;;24.94;32.35;99277.84;4939058;29;20438;-43
2022/04/08 05:42:56;;;;;;;10.05;3.40;;;;;;;24.93;32.54;99259.50;4939210;29;20067;-44
2022/04/08 05:45:24;;;;;;;10.63;3.85;;;;;;;24.92;32.58;99265.63;4938973;29;20447;-44
2022/04/08 05:47:54;;;;;;;8.10;2.90;;;;;;;24.93;32.54;99226.28;4938969;29;20389;-45
2022/04/08 05:50:21;;;;;;;8.98;3.08;;;;;;;24.99;32.30;99238.41;4938917;29;20032;-43
2022/04/08 05:52:52;;;;;;;11.57;3.50;;;;;;;24.92;32.20;99221.03;4939220;29;20106;-44
2022/04/08 05:55:21;;;;;;;9.48;3.05;;;;;;;25.00;32.08;99229.63;4939073;29;20030;-44
2022/04/08 05:57:53;;;;;;;9.77;3.40;;;;;;;24.97;32.21;99225.31;4939046;29;20434;-44
2022/04/08 06:00:21;;;;;;;10.75;3.80;;;;;;;24.97;32.11;99208.72;4939090;29;20023;-46
2022/04/08 06:02:50;;;;;;;8.30;3.05;;;;;;;24.97;32.13;99190.34;4938382;29;20066;-44
2022/04/08 06:05:19;;;;;;;7.82;3.25;;;;;;;24.96;32.20;99210.47;4938606;29;20031;-45
2022/04/08 06:07:54;;;;;;;9.85;3.20;;;;;;;24.96;32.47;99184.25;4938278;29;20028;-44
2022/04/08 06:10:24;;;;;;;9.45;3.42;;;;;;;24.96;32.45;99189.50;4938489;29;20090;-44
2022/04/08 06:12:53;;;;;;;12.20;3.95;;;;;;;24.92;32.54;99182.56;4938836;29;20036;-44
2022/04/08 06:15:22;;;;;;;10.65;3.13;;;;;;;24.92;32.68;99187.81;4938287;29;20381;-44
2022/04/08 06:17:50;;;;;;;10.15;3.25;;;;;;;24.89;32.52;99187.88;4938511;29;20493;-46
2022/04/08 06:20:20;;;;;;;9.73;2.80;;;;;;;24.92;32.41;99186.94;4921388;29;20389;-45
2022/04/08 06:22:50;;;;;;;9.02;3.60;;;;;;;24.97;32.60;99180.72;4938514;29;20031;-44
2022/04/08 06:25:20;;;;;;;8.02;3.03;;;;;;;24.97;32.50;99180.72;4939082;29;20032;-44
2022/04/08 06:27:58;;;;;;;7.50;3.20;;;;;;;25.03;32.06;99164.00;4938347;29;20035;-44
2022/04/08 06:30:27;;;;;;;10.68;3.40;;;;;;;24.98;32.29;99178.97;4938439;29;20059;-44
2022/04/08 06:32:56;;;;;;;10.80;4.32;;;;;;;24.89;32.66;99177.38;4938307;29;20020;-44
2022/04/08 06:35:25;;;;;;;10.30;3.78;;;;;;;24.92;32.72;99160.69;4938197;29;20046;-45
2022/04/08 06:37:59;;;;;;;15.68;4.38;;;;;;;24.98;32.25;99171.09;4938063;29;20496;-44
2022/04/08 06:40:28;;;;;;;11.27;4.00;;;;;;;25.00;32.58;99179.78;4938164;29;20422;-44
2022/04/08 06:42:59;;;;;;;12.38;3.72;;;;;;;24.98;32.36;99189.44;4938121;29;20035;-44
2022/04/08 06:45:27;;;;;;;10.23;3.17;;;;;;;24.92;32.90;99215.78;4938214;29;20181;-45
2022/04/08 06:47:57;;;;;;;9.52;3.45;;;;;;;24.86;32.85;99224.63;4937780;29;20111;-44
2022/04/08 06:50:25;;;;;;;10.25;3.75;;;;;;;24.86;32.70;99215.03;4938002;29;20096;-44
2022/04/08 06:52:59;;;;;;;10.60;3.35;;;;;;;24.87;32.77;99216.75;4938109;29;20027;-43
2022/04/08 06:55:27;;;;;;;9.85;3.70;;;;;;;24.81;33.05;99206.38;4938027;29;20087;-43
2022/04/08 06:57:58;;;;;;;12.20;3.40;;;;;;;24.92;32.44;99210.53;4937862;29;20078;-44
2022/04/08 07:00:26;;;;;;;11.85;3.13;;;;;;;24.85;32.70;99202.81;4937857;29;20157;-44
2022/04/08 07:02:56;;;;;;;12.73;3.72;;;;;;;24.83;32.89;99203.72;4937589;29;20032;-44
2022/04/08 07:05:25;;;;;;;12.45;3.35;;;;;;;24.83;32.60;99177.47;4937457;29;20027;-44
2022/04/08 07:07:54;;;;;;;9.30;3.53;;;;;;;24.80;32.63;99202.03;4921238;29;20043;-43
2022/04/08 07:10:23;;;;;;;10.60;3.72;;;;;;;24.82;32.82;99210.72;4937499;29;20118;-43
2022/04/08 07:12:51;;;;;;;10.77;3.33;;;;;;;24.86;32.88;99203.66;4937160;29;20039;-44
2022/04/08 07:15:20;;;;;;;14.23;3.45;;;;;;;24.84;32.73;99203.69;4937048;29;20039;-44
2022/04/08 07:17:48;;;;;;;9.52;2.88;;;;;;;24.84;32.80;99208.06;4937347;29;20119;-49
2022/04/08 07:20:18;;;;;;;10.02;3.22;;;;;;;24.85;32.86;99215.03;4936579;29;20019;-44
2022/04/08 07:22:47;;;;;;;10.25;4.47;;;;;;;24.77;33.08;99212.56;4936726;29;20390;-47
2022/04/08 07:25:16;;;;;;;12.05;4.05;;;;;;;24.79;32.95;99210.78;4936595;29;20059;-43
2022/04/08 07:27:56;;;;;;;10.77;3.60;;;;;;;24.77;32.90;99219.56;4936914;29;20394;-48
2022/04/08 07:30:24;;;;;;;12.02;4.20;;;;;;;24.79;32.87;99217.78;4936901;29;20130;-47
2022/04/08 07:32:54;;;;;;;11.18;3.67;;;;;;;24.80;33.08;99219.53;4937186;29;20078;-45
2022/04/08 07:35:25;;;;;;;12.07;4.75;;;;;;;24.79;32.99;99212.56;4937149;29;20031;-47
2022/04/08 07:37:54;;;;;;;15.13;4.35;;;;;;;24.83;33.08;99216.81;4936746;29;20027;-43
2022/04/08 07:40:23;;;;;;;11.63;3.85;;;;;;;24.81;33.15;99213.38;4936951;29;20038;-43
2022/04/08 07:42:52;;;;;;;14.32;4.15;;;;;;;24.83;32.98;99215.09;4936884;29;20024;-44
2022/04/08 07:45:24;;;;;;;12.88;4.35;;;;;;;24.78;32.87;99213.44;4936810;29;20404;-44
2022/04/08 07:47:54;;;;;;;15.15;4.28;;;;;;;24.83;32.87;99208.94;4937013;29;20040;-43
2022/04/08 07:50:23;;;;;;;15.32;4.53;;;;;;;24.82;33.10;99220.38;4936683;29;20185;-45
2022/04/08 07:52:51;;;;;;;11.30;3.67;;;;;;;24.84;33.23;99208.94;4936743;29;20172;-44
2022/04/08 07:55:20;;;;;;;13.07;3.92;;;;;;;24.77;33.41;99220.41;4936901;29;20024;-45
2022/04/08 07:57:49;;;;;;;12.88;4.90;;;;;;;24.77;33.32;99214.31;4937057;29;20358;-46
2022/04/08 08:00:20;;;;;;;13.00;4.28;;;;;;;24.77;33.26;99216.94;4936409;29;20111;-49
2022/04/08 08:02:50;;;;;;;11.98;4.63;;;;;;;24.79;33.09;99217.78;4937408;29;20028;-52
2022/04/08 08:05:20;;;;;;;13.00;4.78;;;;;;;24.79;33.37;99216.03;4936455;29;20470;-46
2022/04/08 08:07:53;;;;;;;16.17;4.90;;;;;;;24.81;33.31;99218.63;4929944;29;20445;-44
2022/04/08 08:10:24;;;;;;;16.08;5.10;;;;;;;24.84;33.40;99215.94;4920905;29;20119;-45
2022/04/08 08:12:52;;;;;;;15.02;5.13;;;;;;;24.79;33.14;99209.94;4921555;29;20035;-45
2022/04/08 08:15:21;;;;;;;12.75;4.60;;;;;;;24.80;33.63;99216.91;4921513;29;20135;-46
2022/04/08 08:17:49;;;;;;;15.15;4.50;;;;;;;24.85;33.49;99215.03;4920750;29;20054;-44
2022/04/08 08:20:18;;;;;;;18.92;5.60;;;;;;;24.85;33.60;99207.16;4922702;29;20044;-44
2022/04/08 08:22:46;;;;;;;16.15;4.90;;;;;;;24.80;33.18;99204.63;4920471;29;20042;-48
2022/04/08 08:25:14;;;;;;;13.15;4.95;;;;;;;24.87;33.45;99218.50;4919981;29;20059;-45
2022/04/08 08:27:45;;;;;;;15.93;5.20;;;;;;;24.83;33.67;99211.56;4920465;29;20054;-49
2022/04/08 08:30:14;;;;;;;18.20;5.45;;;;;;;24.66;33.70;99178.63;4920381;29;20066;-45
2022/04/08 08:32:44;;;;;;;16.63;5.25;;;;;;;24.79;33.86;99199.44;4935382;29;20032;-44
2022/04/08 08:35:14;;;;;;;12.80;4.60;;;;;;;24.83;33.55;99201.09;4918696;29;20043;-44
2022/04/08 08:37:42;;;;;;;13.45;4.60;;;;;;;24.83;33.44;99207.22;4935973;29;20206;-43
2022/04/08 08:40:11;;;;;;;16.90;5.38;;;;;;;24.82;33.83;99207.25;4935428;29;20427;-45
2022/04/08 08:42:41;;;;;;;15.48;5.05;;;;;;;24.79;33.92;99210.78;4935963;29;20434;-45
2022/04/08 08:45:11;;;;;;;15.27;4.97;;;;;;;24.81;33.76;99192.41;4935946;29;20038;-43
2022/04/08 08:47:40;;;;;;;19.48;6.05;;;;;;;24.82;33.49;99195.00;4936087;29;20115;-44
2022/04/08 08:50:09;;;;;;;14.30;5.50;;;;;;;24.86;33.54;99201.91;4936157;29;20382;-43
2022/04/08 08:52:38;;;;;;;16.77;5.20;;;;;;;24.83;33.61;99188.84;4936015;29;20393;-46
2022/04/08 08:55:07;;;;;;;18.13;5.28;;;;;;;24.86;33.54;99190.53;4935957;29;20074;-45
2022/04/08 08:57:36;;;;;;;16.98;5.60;;;;;;;24.88;33.75;99188.75;4935438;29;20043;-45
2022/04/08 09:00:12;;;;;;;17.27;5.13;;;;;;;24.83;33.79;99183.59;4936000;29;20114;-52
2022/04/08 09:02:41;;;;;;;14.23;5.05;;;;;;;24.91;33.61;99183.47;4936460;29;20067;-49
2022/04/08 09:05:14;;;;;;;19.30;5.38;;;;;;;24.92;33.54;99181.69;4935824;29;20118;-45
2022/04/08 09:07:52;;;;;;;16.02;5.18;;;;;;;24.92;33.80;99173.81;4936238;29;20118;-44
2022/04/08 09:10:29;;;;;;;16.30;5.15;;;;;;;24.86;33.75;99174.81;4935749;29;20027;-44
2022/04/08 09:13:00;;;;;;;15.40;5.55;;;;;;;24.86;33.97;99161.69;4936025;29;20027;-46
2022/04/08 09:15:29;;;;;;;17.30;5.68;;;;;;;24.91;33.67;99166.84;4936003;29;20055;-45
2022/04/08 09:18:17;;;;;;;16.08;5.22;;;;;;;24.95;33.78;99165.91;4935867;29;20028;-44
2022/04/08 09:20:48;;;;;;;21.60;6.88;;;;;;;24.94;33.54;99164.16;4935468;29;20127;-45
2022/04/08 09:23:18;;;;;;;15.25;5.55;;;;;;;24.93;33.69;99160.69;4936008;29;20024;-44
2022/04/08 09:25:48;;;;;;;21.67;6.05;;;;;;;24.87;34.02;99152.94;4935756;29;20043;-44
2022/04/08 09:28:17;;;;;;;18.45;6.45;;;;;;;24.85;33.91;99150.34;4935798;29;20056;-44
2022/04/08 09:30:52;;;;;;;21.90;6.45;;;;;;;24.86;34.21;99148.59;4928301;29;20066;-44
2022/04/08 09:33:23;;;;;;;18.73;5.60;;;;;;;24.89;34.11;99145.91;4916647;29;20056;-43
2022/04/08 09:35:55;;;;;;;18.15;5.78;;;;;;;24.92;33.74;99147.59;4916546;29;20039;-45
2022/04/08 09:38:26;;;;;;;13.15;5.43;;;;;;;24.92;34.00;99151.09;4916572;29;20028;-47
2022/04/08 09:41:15;;;;;;;17.98;5.57;;;;;;;24.96;33.75;99150.16;4916689;29;20020;-44
2022/04/08 09:43:43;;;;;;;16.42;5.40;;;;;;;24.91;33.81;99140.63;4886406;29;20171;-44
2022/04/08 09:46:16;;;;;;;14.82;5.40;;;;;;;24.92;34.03;99137.09;4919969;29;20043;-44
2022/04/08 09:48:46;;;;;;;18.75;6.40;;;;;;;24.95;34.03;99126.56;4919836;29;20020;-45
2022/04/08 09:51:20;;;;;;;16.15;5.30;;;;;;;24.95;33.65;99132.69;4902694;29;20040;-48
2022/04/08 09:53:53;;;;;;;20.83;6.40;;;;;;;24.94;34.04;99130.94;4919586;29;20028;-44
2022/04/08 09:56:23;;;;;;;18.83;5.75;;;;;;;24.95;33.86;99131.78;4919105;29;20040;-45
2022/04/08 09:58:59;;;;;;;20.27;6.30;;;;;;;24.95;33.65;99118.69;4919021;29;20032;-45
2022/04/08 10:01:29;;;;;;;16.50;5.40;;;;;;;24.95;33.84;99131.78;4902743;29;20055;-45
2022/04/08 10:03:58;;;;;;;17.02;5.22;;;;;;;25.00;33.82;99124.72;4919825;29;20024;-45
2022/04/08 10:06:28;;;;;;;17.55;5.57;;;;;;;25.01;33.71;99127.28;4919540;29;20032;-44
2022/04/08 10:08:57;;;;;;;16.75;6.53;;;;;;;25.02;33.89;99121.16;4919554;29;20028;-43
2022/04/08 10:11:31;;;;;;;22.67;7.30;;;;;;;24.99;34.18;99118.59;4919349;29;20027;-44
2022/04/08 10:14:19;;;;;;;14.30;4.97;;;;;;;25.03;33.82;99114.16;4902883;29;20044;-45
2022/04/08 10:16:51;;;;;;;17.45;5.72;;;;;;;25.01;33.72;99122.03;4912543;29;20047;-47
2022/04/08 10:19:22;;;;;;;19.73;5.88;;;;;;;24.98;33.77;99116.88;4903225;29;20051;-44
2022/04/08 10:21:55;;;;;;;16.77;6.15;;;;;;;24.99;33.87;99113.34;4902955;29;20493;-45
2022/04/08 10:24:25;;;;;;;22.13;6.00;;;;;;;24.98;34.03;99102.88;4902968;29;20497;-43
2022/04/08 10:26:57;;;;;;;16.42;5.65;;;;;;;25.03;33.74;99103.66;4919176;29;20092;-43
2022/04/08 10:29:25;;;;;;;17.85;6.25;;;;;;;25.04;33.78;99105.41;4919292;29;20466;-46
2022/04/08 10:32:06;;;;;;;17.10;5.80;;;;;;;25.03;33.96;99094.03;4934317;29;20447;-43
2022/04/08 10:34:35;;;;;;;16.90;5.63;;;;;;;25.04;33.96;99092.28;4921663;29;20031;-45
2022/04/08 10:37:16;;;;;;;21.17;6.00;;;;;;;25.06;34.12;99084.38;4938499;29;20059;-45
2022/04/08 10:39:59;;;;;;;17.45;5.70;;;;;;;25.06;33.71;99087.00;4921431;29;20040;-46
2022/04/08 10:42:29;;;;;;;17.05;6.22;;;;;;;25.10;33.89;99083.41;4938214;29;20036;-44
2022/04/08 10:44:58;;;;;;;16.00;5.95;;;;;;;25.09;33.85;99090.41;4938110;29;20035;-44
2022/04/08 10:47:28;;;;;;;15.75;6.15;;;;;;;25.10;34.04;99078.16;4921339;29;20067;-45
2022/04/08 10:50:02;;;;;;;15.85;5.22;;;;;;;25.10;33.99;99068.50;4920960;29;20027;-45
2022/04/08 10:52:31;;;;;;;16.00;5.78;;;;;;;25.09;34.10;99073.81;4937994;29;20359;-44
2022/04/08 10:55:19;;;;;;;20.63;6.47;;;;;;;25.14;34.13;99075.44;4936921;29;20054;-44
2022/04/08 10:57:58;;;;;;;14.52;5.05;;;;;;;25.14;34.09;99071.97;4937887;29;20035;-46
2022/04/08 11:00:27;;;;;;;15.02;4.80;;;;;;;25.18;33.95;99063.09;4937401;29;20536;-43
2022/04/08 11:02:56;;;;;;;17.52;5.93;;;;;;;25.15;34.03;99061.41;4921671;29;20110;-43
2022/04/08 11:05:25;;;;;;;16.88;5.30;;;;;;;25.11;34.24;99056.28;4937771;29;20054;-45
2022/04/08 11:07:53;;;;;;;14.13;5.38;;;;;;;25.16;34.19;99060.53;4937359;29;20031;-44
2022/04/08 11:10:22;;;;;;;14.10;5.43;;;;;;;25.17;33.90;99051.75;4937115;29;20107;-45
2022/04/08 11:12:53;;;;;;;19.60;5.78;;;;;;;25.19;33.96;99054.34;4938366;29;20027;-47
2022/04/08 11:15:23;;;;;;;16.63;5.88;;;;;;;25.22;34.28;99056.03;4937306;29;20028;-44
2022/04/08 11:17:53;;;;;;;14.80;5.35;;;;;;;25.21;33.80;99051.69;4937512;29;20031;-51
2022/04/08 11:20:23;;;;;;;13.43;4.70;;;;;;;25.20;34.17;99052.59;4937486;29;20494;-44
2022/04/08 11:22:53;;;;;;;16.65;4.95;;;;;;;25.22;34.16;99061.28;4937639;29;20385;-45
2022/04/08 11:25:24;;;;;;;17.05;5.55;;;;;;;25.22;34.14;99049.03;4937145;29;20118;-46
2022/04/08 11:28:01;;;;;;;16.77;5.43;;;;;;;25.27;34.15;99055.03;4937298;29;20028;-47
2022/04/08 11:30:31;;;;;;;14.75;5.22;;;;;;;25.27;33.95;99055.03;4937001;29;20177;-52
2022/04/08 11:33:00;;;;;;;13.82;5.07;;;;;;;25.29;34.15;99053.25;4937300;29;20028;-45
2022/04/08 11:35:31;;;;;;;13.00;4.90;;;;;;;25.25;34.05;99063.81;4936864;29;20166;-46
2022/04/08 11:38:00;;;;;;;20.05;6.53;;;;;;;25.30;33.98;99064.59;4937364;29;20028;-44